createdAt,value
2023-03-02T00:02:10.868Z,23.42
2023-03-02T00:04:50.649Z,19.92
2023-03-02T00:07:24.126Z,20.15
2023-03-02T00:09:51.302Z,20.23
2023-03-02T00:12:18.269Z,21.17
2023-03-02T00:14:45.441Z,24.05
2023-03-02T00:17:12.645Z,20.13
2023-03-02T00:19:39.622Z,16.63
2023-03-02T00:22:06.616Z,21.20
2023-03-02T00:24:33.589Z,20.48
2023-03-02T00:27:00.507Z,19.40
2023-03-02T00:29:27.688Z,20.67
2023-03-02T00:31:54.811Z,20.48
2023-03-02T00:34:21.894Z,20.90
2023-03-02T00:36:49.542Z,20.13
2023-03-02T00:39:20.136Z,20.98
2023-03-02T00:41:48.291Z,17.13
2023-03-02T00:44:17.439Z,20.45
2023-03-02T00:46:45.262Z,20.38
2023-03-02T00:49:12.845Z,22.35
2023-03-02T00:51:39.733Z,21.75
2023-03-02T00:54:06.712Z,20.23
2023-03-02T00:56:34.007Z,19.40
2023-03-02T00:59:28.775Z,17.13
2023-03-02T01:01:59.785Z,18.50
2023-03-02T01:04:31.139Z,21.73
2023-03-02T01:07:01.412Z,18.27
2023-03-02T01:09:29.325Z,19.60
2023-03-02T01:11:56.496Z,20.73
2023-03-02T01:14:24.449Z,22.05
2023-03-02T01:16:51.545Z,18.65
2023-03-02T01:19:18.809Z,20.40
2023-03-02T01:21:45.837Z,20.00
2023-03-02T01:24:13.089Z,20.20
2023-03-02T01:26:39.922Z,21.85
2023-03-02T01:29:06.988Z,20.92
2023-03-02T01:31:33.819Z,22.80
2023-03-02T01:34:00.731Z,16.23
2023-03-02T01:36:27.620Z,15.88
2023-03-02T01:38:54.727Z,18.48
2023-03-02T01:41:21.666Z,22.30
2023-03-02T01:43:48.578Z,18.58
2023-03-02T01:46:35.184Z,19.27
2023-03-02T01:49:12.327Z,20.25
2023-03-02T01:51:46.890Z,16.77
2023-03-02T01:54:23.111Z,19.08
2023-03-02T01:56:58.068Z,19.42
2023-03-02T01:59:28.104Z,19.65
2023-03-02T02:02:01.766Z,22.33
2023-03-02T02:04:31.042Z,18.70
2023-03-02T02:07:04.590Z,22.60
2023-03-02T02:09:37.941Z,17.65
2023-03-02T02:12:05.885Z,19.02
2023-03-02T02:14:33.062Z,19.50
2023-03-02T02:17:00.077Z,22.92
2023-03-02T02:19:56.663Z,20.38
2023-03-02T02:22:55.392Z,19.85
2023-03-02T02:25:58.376Z,18.42
2023-03-02T02:28:33.064Z,20.58
2023-03-02T02:31:22.497Z,21.83
2023-03-02T02:34:03.095Z,22.55
2023-03-02T02:36:38.796Z,22.58
2023-03-02T02:39:13.501Z,22.17
2023-03-02T02:41:42.350Z,17.83
2023-03-02T02:44:16.139Z,23.80
2023-03-02T02:46:44.979Z,18.52
2023-03-02T02:49:40.395Z,19.60
2023-03-02T02:52:12.705Z,19.30
2023-03-02T02:54:39.778Z,23.00
2023-03-02T02:57:07.445Z,21.65
2023-03-02T02:59:43.630Z,23.05
2023-03-02T03:02:27.768Z,22.83
2023-03-02T03:05:02.584Z,18.95
2023-03-02T03:07:31.518Z,21.80
2023-03-02T03:10:24.839Z,21.48
2023-03-02T03:12:52.407Z,18.73
2023-03-02T03:15:19.720Z,21.70
2023-03-02T03:17:58.392Z,20.50
2023-03-02T03:20:27.229Z,22.30
2023-03-02T03:22:54.485Z,22.05
2023-03-02T03:25:25.961Z,20.92
2023-03-02T03:27:52.779Z,22.20
2023-03-02T03:30:19.824Z,23.27
2023-03-02T03:32:46.822Z,22.95
2023-03-02T03:35:13.761Z,23.77
2023-03-02T03:37:42.210Z,24.63
2023-03-02T03:40:10.535Z,20.92
2023-03-02T03:42:38.318Z,24.40
2023-03-02T03:45:08.624Z,21.92
2023-03-02T03:47:36.376Z,26.80
2023-03-02T03:50:03.868Z,25.30
2023-03-02T03:52:30.958Z,26.40
2023-03-02T03:55:00.354Z,24.65
2023-03-02T03:57:31.172Z,22.73
2023-03-02T03:59:58.066Z,25.92
2023-03-02T04:02:25.089Z,23.35
2023-03-02T04:04:52.118Z,23.83
2023-03-02T04:07:19.444Z,27.30
2023-03-02T04:09:46.401Z,23.25
2023-03-02T04:12:13.261Z,25.33
2023-03-02T04:14:40.145Z,27.67
2023-03-02T04:17:07.082Z,24.35
2023-03-02T04:19:35.551Z,24.92
2023-03-02T04:22:04.082Z,21.83
2023-03-02T04:24:31.438Z,23.20
2023-03-02T04:26:58.413Z,22.65
2023-03-02T04:29:25.368Z,28.35
2023-03-02T04:31:52.328Z,23.80
2023-03-02T04:34:19.449Z,24.73
2023-03-02T04:36:46.696Z,24.30
2023-03-02T04:39:17.685Z,23.52
2023-03-02T04:41:45.964Z,22.58
2023-03-02T04:44:14.540Z,25.50
2023-03-02T04:46:44.699Z,24.02
2023-03-02T04:49:13.721Z,25.63
2023-03-02T04:51:44.937Z,25.88
2023-03-02T04:54:26.444Z,23.90
2023-03-02T04:56:55.104Z,23.65
2023-03-02T04:59:26.633Z,21.65
2023-03-02T05:01:57.469Z,24.70
2023-03-02T05:04:25.903Z,25.58
2023-03-02T05:06:52.887Z,22.98
2023-03-02T05:09:21.227Z,22.17
2023-03-02T05:11:48.102Z,24.58
2023-03-02T05:14:14.960Z,26.35
2023-03-02T05:16:42.667Z,25.55
2023-03-02T05:19:12.388Z,25.88
2023-03-02T05:21:40.027Z,25.05
2023-03-02T05:24:07.349Z,24.17
2023-03-02T05:26:34.981Z,25.00
2023-03-02T05:29:02.157Z,27.83
2023-03-02T05:31:40.636Z,27.23
2023-03-02T05:34:10.919Z,23.73
2023-03-02T05:36:38.604Z,27.67
2023-03-02T05:39:07.077Z,24.65
2023-03-02T05:41:34.430Z,25.98
2023-03-02T05:44:01.878Z,26.08
2023-03-02T05:46:28.862Z,25.55
2023-03-02T05:48:55.909Z,24.02
2023-03-02T05:51:22.850Z,23.20
2023-03-02T05:53:49.740Z,24.33
2023-03-02T05:56:16.663Z,23.20
2023-03-02T05:58:43.532Z,24.55
2023-03-02T06:01:14.210Z,26.23
2023-03-02T06:03:43.280Z,25.85
2023-03-02T06:06:14.153Z,24.65
2023-03-02T06:08:42.824Z,24.08
2023-03-02T06:11:11.122Z,25.95
2023-03-02T06:13:38.761Z,25.40
2023-03-02T06:16:06.403Z,24.63
2023-03-02T06:18:34.180Z,23.75
2023-03-02T06:21:01.392Z,20.65
2023-03-02T06:23:28.637Z,21.73
2023-03-02T06:25:55.661Z,20.80
2023-03-02T06:28:22.468Z,23.40
2023-03-02T06:30:50.236Z,26.77
2023-03-02T06:33:19.298Z,30.52
2023-03-02T06:35:47.110Z,27.73
2023-03-02T06:38:14.085Z,25.75
2023-03-02T06:40:40.949Z,27.13
2023-03-02T06:43:07.814Z,31.65
2023-03-02T06:45:34.785Z,28.77
2023-03-02T06:48:02.305Z,27.40
2023-03-02T06:50:29.305Z,25.30
2023-03-02T06:52:56.405Z,27.65
2023-03-02T06:55:23.455Z,28.05
2023-03-02T06:57:51.012Z,25.88
2023-03-02T07:00:25.894Z,32.67
2023-03-02T07:03:05.456Z,29.42
2023-03-02T07:05:32.509Z,29.63
2023-03-02T07:08:00.140Z,30.88
2023-03-02T07:10:27.501Z,27.45
2023-03-02T07:12:54.676Z,28.77
2023-03-02T07:15:22.168Z,29.30
2023-03-02T07:17:49.066Z,29.48
2023-03-02T07:20:18.566Z,26.38
2023-03-02T07:22:45.616Z,25.67
2023-03-02T07:25:13.644Z,31.02
2023-03-02T07:27:41.641Z,27.17
2023-03-02T07:30:09.834Z,31.02
2023-03-02T07:32:36.848Z,32.55
2023-03-02T07:35:04.158Z,31.73
2023-03-02T07:37:31.080Z,32.80
2023-03-02T07:40:00.297Z,27.85
2023-03-02T07:42:27.565Z,31.63
2023-03-02T07:44:54.532Z,27.80
2023-03-02T07:47:22.043Z,30.48
2023-03-02T07:49:48.965Z,30.25
2023-03-02T07:52:15.981Z,23.90
2023-03-02T07:54:42.950Z,25.10
2023-03-02T07:57:09.901Z,24.73
2023-03-02T07:59:36.787Z,25.40
2023-03-02T08:02:03.734Z,24.33
2023-03-02T08:04:30.680Z,26.85
2023-03-02T08:06:57.544Z,21.73
2023-03-02T08:09:24.357Z,21.30
2023-03-02T08:11:51.180Z,21.58
2023-03-02T08:14:18.020Z,18.80
2023-03-02T08:16:45.017Z,17.80
2023-03-02T08:19:11.988Z,19.27
2023-03-02T08:21:39.066Z,19.42
2023-03-02T08:24:06.389Z,19.90
2023-03-02T08:26:33.336Z,17.33
2023-03-02T08:29:00.331Z,18.02
2023-03-02T08:31:27.792Z,16.13
2023-03-02T08:33:54.783Z,15.90
2023-03-02T08:36:22.247Z,16.15
2023-03-02T08:38:49.626Z,17.75
2023-03-02T08:41:21.792Z,17.08
2023-03-02T08:43:50.251Z,20.90
2023-03-02T08:46:19.205Z,21.27
2023-03-02T08:48:47.068Z,16.40
2023-03-02T08:51:18.569Z,16.10
2023-03-02T08:53:50.409Z,17.42
2023-03-02T08:56:19.770Z,14.90
2023-03-02T08:58:49.156Z,15.27
2023-03-02T09:01:20.490Z,17.67
2023-03-02T09:03:47.616Z,14.93
2023-03-02T09:06:15.599Z,16.73
2023-03-02T09:08:43.617Z,14.00
2023-03-02T09:11:11.004Z,14.15
2023-03-02T09:13:38.235Z,12.40
2023-03-02T09:16:06.444Z,16.98
2023-03-02T09:18:34.096Z,15.15
2023-03-02T09:21:01.717Z,11.98
2023-03-02T09:23:29.243Z,15.18
2023-03-02T09:25:56.318Z,11.60
2023-03-02T09:28:24.332Z,12.02
2023-03-02T09:30:53.573Z,14.57
2023-03-02T09:33:21.433Z,11.38
2023-03-02T09:35:48.400Z,11.30
2023-03-02T09:38:17.148Z,11.48
2023-03-02T09:40:58.807Z,12.75
2023-03-02T09:43:36.229Z,10.70
2023-03-02T09:46:34.624Z,9.52
2023-03-02T09:49:42.309Z,8.45
2023-03-02T09:52:31.716Z,9.95
2023-03-02T09:55:22.447Z,9.77
2023-03-02T09:57:50.740Z,10.00
2023-03-02T10:00:38.313Z,10.27
2023-03-02T10:03:17.012Z,9.70
2023-03-02T10:05:49.297Z,9.05
2023-03-02T10:08:27.560Z,10.05
2023-03-02T10:11:27.125Z,9.60
2023-03-02T10:14:15.094Z,9.30
2023-03-02T10:16:52.595Z,9.32
2023-03-02T10:19:42.216Z,11.38
2023-03-02T10:22:35.274Z,8.63
2023-03-02T10:25:39.875Z,9.60
2023-03-02T10:28:19.182Z,7.82
2023-03-02T10:30:53.432Z,9.40
2023-03-02T10:33:22.510Z,8.05
2023-03-02T10:35:53.109Z,8.40
2023-03-02T10:38:25.300Z,7.35
2023-03-02T10:41:02.163Z,7.95
2023-03-02T10:43:47.433Z,7.22
2023-03-02T10:46:14.781Z,7.25
2023-03-02T10:48:59.698Z,8.02
2023-03-02T10:51:35.644Z,7.30
2023-03-02T10:54:12.200Z,7.97
2023-03-02T10:56:43.428Z,9.20
2023-03-02T10:59:45.710Z,6.97
2023-03-02T11:02:23.038Z,7.10
2023-03-02T11:05:19.208Z,7.15
2023-03-02T11:08:11.274Z,6.43
2023-03-02T11:10:50.740Z,5.55
2023-03-02T11:13:29.711Z,7.70
2023-03-02T11:16:02.018Z,7.80
2023-03-02T11:18:40.084Z,7.32
2023-03-02T11:21:22.276Z,7.30
2023-03-02T11:24:19.451Z,7.03
2023-03-02T11:26:54.972Z,6.72
2023-03-02T11:29:41.639Z,7.05
2023-03-02T11:32:08.462Z,7.15
2023-03-02T11:34:58.078Z,7.25
2023-03-02T11:37:42.648Z,8.63
2023-03-02T11:40:18.132Z,7.88
2023-03-02T11:42:47.158Z,10.55
2023-03-02T11:45:13.977Z,8.00
2023-03-02T11:48:03.818Z,7.13
2023-03-02T11:50:36.878Z,7.30
2023-03-02T11:53:18.023Z,6.25
2023-03-02T11:55:48.734Z,9.57
2023-03-02T12:00:49.911Z,7.80
2023-03-02T12:03:16.648Z,9.23
2023-03-02T12:06:01.310Z,7.43
2023-03-02T12:08:33.205Z,7.97
2023-03-02T12:11:17.282Z,8.30
2023-03-02T12:14:05.262Z,10.65
2023-03-02T12:16:35.854Z,7.43
2023-03-02T12:19:28.323Z,8.82
2023-03-02T12:22:10.517Z,6.80
2023-03-02T12:24:41.634Z,8.88
2023-03-02T12:27:20.838Z,7.35
2023-03-02T12:30:09.719Z,8.95
2023-03-02T12:32:37.316Z,8.02
2023-03-02T12:35:13.782Z,7.53
2023-03-02T12:37:57.617Z,8.50
2023-03-02T12:41:17.507Z,11.07
2023-03-02T12:44:47.688Z,8.55
2023-03-02T12:47:27.709Z,8.27
2023-03-02T12:50:07.841Z,8.40
2023-03-02T12:52:36.790Z,8.85
2023-03-02T12:55:09.717Z,11.40
2023-03-02T12:57:54.304Z,10.73
2023-03-02T13:00:28.298Z,8.57
2023-03-02T13:02:57.752Z,9.77
2023-03-02T13:05:29.833Z,7.63
2023-03-02T13:08:00.152Z,7.50
2023-03-02T13:10:31.196Z,8.15
2023-03-02T13:13:00.274Z,9.40
2023-03-02T13:15:29.766Z,9.80
2023-03-02T13:18:00.119Z,9.45
2023-03-02T13:20:29.932Z,10.38
2023-03-02T13:22:57.205Z,9.60
2023-03-02T13:25:31.162Z,9.73
2023-03-02T13:28:07.280Z,8.27
2023-03-02T13:30:37.469Z,7.47
2023-03-02T13:33:23.190Z,8.27
2023-03-02T13:35:50.363Z,9.18
2023-03-02T13:38:44.687Z,8.07
2023-03-02T13:41:25.942Z,8.98
2023-03-02T13:43:55.195Z,10.35
2023-03-02T13:46:22.680Z,9.20
2023-03-02T13:49:11.235Z,9.98
2023-03-02T13:51:43.987Z,9.48
2023-03-02T13:54:24.961Z,10.82
2023-03-02T13:56:53.723Z,8.48
2023-03-02T13:59:22.374Z,9.10
2023-03-02T14:01:50.034Z,8.70
2023-03-02T14:04:23.958Z,7.05
2023-03-02T14:06:54.048Z,10.02
2023-03-02T14:09:21.373Z,7.57
2023-03-02T14:11:52.819Z,7.25
2023-03-02T14:14:25.053Z,9.75
2023-03-02T14:16:52.369Z,9.68
2023-03-02T14:19:20.181Z,7.97
2023-03-02T14:21:47.978Z,7.72
2023-03-02T14:24:14.958Z,8.48
2023-03-02T14:26:47.349Z,9.13
2023-03-02T14:29:38.935Z,12.13
2023-03-02T14:32:08.513Z,7.70
2023-03-02T14:34:37.287Z,10.88
2023-03-02T14:37:16.293Z,15.20
2023-03-02T14:39:51.406Z,14.90
2023-03-02T14:42:21.107Z,14.32
2023-03-02T14:44:50.484Z,12.50
2023-03-02T14:47:19.422Z,11.38
2023-03-02T14:49:46.723Z,15.55
2023-03-02T14:52:38.700Z,16.55
2023-03-02T14:55:25.878Z,13.73
2023-03-02T14:58:10.261Z,12.32
2023-03-02T15:00:37.361Z,14.15
2023-03-02T15:03:04.268Z,13.30
2023-03-02T15:05:31.992Z,14.90
2023-03-02T15:07:59.019Z,14.60
2023-03-02T15:10:25.991Z,17.00
2023-03-02T15:12:52.864Z,16.75
2023-03-02T15:15:19.892Z,14.65
2023-03-02T15:17:46.759Z,15.55
2023-03-02T15:20:17.314Z,14.23
2023-03-02T15:22:44.694Z,16.73
2023-03-02T15:25:11.827Z,15.88
2023-03-02T15:27:38.779Z,14.98
2023-03-02T15:30:06.558Z,14.98
2023-03-02T15:32:33.555Z,15.07
2023-03-02T15:35:00.669Z,17.50
2023-03-02T15:37:28.405Z,17.73
2023-03-02T15:39:56.566Z,14.75
2023-03-02T15:42:23.863Z,14.77
2023-03-02T15:44:50.755Z,15.30
2023-03-02T15:47:18.173Z,17.05
2023-03-02T15:49:45.024Z,15.43
2023-03-02T15:52:12.703Z,16.55
2023-03-02T15:54:39.950Z,18.00
2023-03-02T15:57:07.672Z,16.85
2023-03-02T15:59:34.855Z,15.50
2023-03-02T16:02:02.478Z,18.90
2023-03-02T16:04:31.727Z,15.15
2023-03-02T16:06:59.577Z,18.52
2023-03-02T16:09:28.968Z,19.15
2023-03-02T16:11:56.231Z,20.13
2023-03-02T16:14:23.653Z,19.08
2023-03-02T16:16:51.898Z,20.73
2023-03-02T16:19:19.704Z,21.48
2023-03-02T16:21:48.138Z,20.70
2023-03-02T16:24:17.079Z,22.75
2023-03-02T16:26:44.791Z,22.80
2023-03-02T16:29:14.573Z,26.00
2023-03-02T16:31:41.921Z,23.58
2023-03-02T16:34:10.332Z,25.52
2023-03-02T16:36:39.898Z,27.35
2023-03-02T16:39:09.093Z,28.40
2023-03-02T16:41:38.168Z,25.77
2023-03-02T16:44:05.507Z,26.55
2023-03-02T16:46:36.727Z,24.45
2023-03-02T16:49:05.077Z,27.35
2023-03-02T16:51:32.433Z,27.55
2023-03-02T16:53:59.540Z,25.80
2023-03-02T16:56:26.594Z,28.00
2023-03-02T16:58:54.473Z,35.38
2023-03-02T17:01:23.973Z,27.27
2023-03-02T17:03:52.434Z,32.67
2023-03-02T17:06:22.895Z,33.72
2023-03-02T17:08:50.832Z,29.48
2023-03-02T17:11:18.601Z,30.13
2023-03-02T17:13:45.786Z,39.10
2023-03-02T17:16:13.004Z,36.90
2023-03-02T17:18:41.087Z,29.45
2023-03-02T17:21:08.542Z,30.42
2023-03-02T17:23:37.021Z,32.15
2023-03-02T17:26:04.558Z,30.65
2023-03-02T17:28:31.985Z,29.20
2023-03-02T17:31:00.318Z,34.80
2023-03-02T17:33:29.500Z,30.38
2023-03-02T17:35:56.396Z,32.10
2023-03-02T17:38:23.689Z,33.13
2023-03-02T17:40:50.565Z,36.88
2023-03-02T17:43:17.511Z,37.10
2023-03-02T17:45:44.539Z,33.08
2023-03-02T17:48:11.536Z,32.75
2023-03-02T17:50:38.568Z,32.45
2023-03-02T17:53:05.468Z,38.30
2023-03-02T17:55:32.447Z,36.55
2023-03-02T17:57:59.419Z,34.10
2023-03-02T18:00:26.586Z,34.38
2023-03-02T18:02:54.070Z,29.27
2023-03-02T18:05:21.854Z,33.88
2023-03-02T18:07:52.857Z,33.10
2023-03-02T18:10:19.902Z,31.88
2023-03-02T18:12:47.868Z,34.55
2023-03-02T18:15:14.925Z,34.30
2023-03-02T18:17:41.848Z,33.88
2023-03-02T18:20:10.056Z,34.80
2023-03-02T18:22:37.099Z,30.55
2023-03-02T18:25:04.507Z,34.53
2023-03-02T18:27:31.491Z,33.70
2023-03-02T18:29:58.787Z,41.53
2023-03-02T18:32:26.089Z,44.30
2023-03-02T18:34:53.105Z,42.85
2023-03-02T18:37:20.127Z,42.15
2023-03-02T18:39:47.017Z,39.05
2023-03-02T18:42:14.076Z,35.95
2023-03-02T18:44:41.231Z,36.17
2023-03-02T18:47:08.592Z,37.53
2023-03-02T18:49:35.432Z,33.53
2023-03-02T18:52:06.877Z,36.80
2023-03-02T18:54:33.964Z,39.33
2023-03-02T18:57:01.685Z,38.67
2023-03-02T18:59:29.618Z,40.85
2023-03-02T19:01:57.412Z,36.25
2023-03-02T19:04:26.701Z,39.00
2023-03-02T19:06:56.042Z,39.75
2023-03-02T19:09:23.729Z,34.28
2023-03-02T19:11:50.741Z,38.20
2023-03-02T19:14:18.341Z,37.97
2023-03-02T19:16:46.043Z,37.63
2023-03-02T19:19:13.466Z,40.35
2023-03-02T19:21:40.700Z,41.08
2023-03-02T19:24:08.016Z,36.17
2023-03-02T19:26:35.629Z,37.20
2023-03-02T19:29:02.759Z,33.08
2023-03-02T19:31:30.491Z,33.10
2023-03-02T19:33:57.848Z,37.58
2023-03-02T19:36:25.090Z,35.90
2023-03-02T19:38:51.999Z,33.00
2023-03-02T19:41:20.475Z,34.00
2023-03-02T19:43:47.671Z,38.78
2023-03-02T19:46:16.449Z,35.00
2023-03-02T19:48:44.375Z,39.38
2023-03-02T19:51:13.475Z,37.65
2023-03-02T19:53:41.831Z,43.78
2023-03-02T19:56:14.266Z,42.90
2023-03-02T19:58:47.715Z,46.00
2023-03-02T20:01:24.739Z,38.30
2023-03-02T20:03:53.104Z,43.80
2023-03-02T20:06:24.049Z,35.15
2023-03-02T20:08:52.171Z,41.00
2023-03-02T20:11:19.398Z,42.25
2023-03-02T20:13:48.279Z,40.78
2023-03-02T20:16:15.741Z,38.67
2023-03-02T20:18:43.063Z,42.03
2023-03-02T20:21:10.126Z,38.97
2023-03-02T20:23:37.463Z,39.53
2023-03-02T20:26:05.613Z,32.10
2023-03-02T20:28:33.148Z,33.97
2023-03-02T20:31:08.852Z,35.80
2023-03-02T20:33:43.104Z,36.75
2023-03-02T20:36:12.786Z,34.88
2023-03-02T20:38:50.222Z,32.03
2023-03-02T20:41:18.483Z,32.42
2023-03-02T20:43:45.646Z,37.00
2023-03-02T20:46:21.858Z,31.80
2023-03-02T20:48:49.606Z,30.70
2023-03-02T20:51:17.028Z,34.45
2023-03-02T20:53:46.975Z,34.50
2023-03-02T20:56:19.265Z,35.60
2023-03-02T20:58:47.921Z,30.67
2023-03-02T21:01:17.917Z,34.05
2023-03-02T21:03:45.643Z,36.88
2023-03-02T21:06:15.251Z,34.22
2023-03-02T21:08:43.257Z,36.05
2023-03-02T21:11:17.856Z,32.55
2023-03-02T21:13:47.586Z,31.38
2023-03-02T21:16:27.754Z,32.35
2023-03-02T21:18:56.168Z,31.95
2023-03-02T21:21:40.424Z,33.88
2023-03-02T21:24:16.931Z,35.53
2023-03-02T21:26:46.748Z,35.00
2023-03-02T21:29:14.969Z,34.88
2023-03-02T21:31:43.921Z,34.70
2023-03-02T21:34:13.731Z,37.03
2023-03-02T21:37:25.865Z,38.55
2023-03-02T21:39:53.532Z,32.55
2023-03-02T21:42:21.225Z,31.40
2023-03-02T21:44:48.136Z,34.42
2023-03-02T21:47:15.075Z,32.28
2023-03-02T21:49:41.942Z,41.33
2023-03-02T21:52:08.840Z,31.40
2023-03-02T21:54:35.673Z,35.78
2023-03-02T21:57:02.510Z,34.05
2023-03-02T21:59:30.681Z,34.65
2023-03-02T22:01:57.552Z,30.85
2023-03-02T22:04:24.405Z,34.72
2023-03-02T22:06:51.231Z,34.72
2023-03-02T22:09:18.106Z,30.00
2023-03-02T22:11:46.003Z,34.80
2023-03-02T22:14:17.565Z,31.23
2023-03-02T22:16:47.840Z,31.27
2023-03-02T22:19:28.796Z,30.42
2023-03-02T22:24:30.009Z,28.08
2023-03-02T22:27:08.947Z,31.35
2023-03-02T22:29:44.566Z,39.00
2023-03-02T22:32:23.250Z,31.55
2023-03-02T22:34:54.170Z,30.00
2023-03-02T22:37:34.529Z,31.40
2023-03-02T22:40:26.702Z,30.83
2023-03-02T22:43:12.433Z,30.85
2023-03-02T22:45:41.782Z,30.98
2023-03-02T22:48:29.585Z,32.08
2023-03-02T22:50:56.526Z,32.72
2023-03-02T22:53:32.575Z,31.35
2023-03-02T22:56:18.394Z,31.40
2023-03-02T22:58:49.918Z,27.23
2023-03-02T23:01:24.429Z,29.95
2023-03-02T23:04:11.883Z,28.48
2023-03-02T23:06:45.253Z,25.25
2023-03-02T23:09:23.507Z,29.80
2023-03-02T23:11:51.635Z,29.80
2023-03-02T23:14:41.543Z,29.30
2023-03-02T23:17:35.090Z,30.40
2023-03-02T23:20:03.129Z,32.45
2023-03-02T23:22:31.981Z,31.85
2023-03-02T23:24:58.984Z,27.60
2023-03-02T23:27:25.950Z,27.73
2023-03-02T23:29:53.327Z,28.95
2023-03-02T23:32:20.415Z,34.08
2023-03-02T23:34:47.482Z,29.90
2023-03-02T23:37:14.304Z,28.77
2023-03-02T23:39:41.260Z,26.05
2023-03-02T23:42:08.644Z,32.00
2023-03-02T23:44:35.418Z,27.52
2023-03-02T23:47:02.237Z,29.05
2023-03-02T23:49:29.066Z,27.98
2023-03-02T23:51:55.873Z,28.10
2023-03-02T23:54:22.742Z,29.40
2023-03-02T23:56:49.612Z,25.77
2023-03-02T23:59:16.411Z,35.38
